createdAt,value
2023-04-27T00:01:52.019Z,97715.88
2023-04-27T00:04:19.375Z,97716.50
2023-04-27T00:06:46.208Z,97709.53
2023-04-27T00:09:12.990Z,97709.03
2023-04-27T00:11:39.540Z,97711.72
2023-04-27T00:14:06.088Z,97707.44
2023-04-27T00:16:32.653Z,97710.31
2023-04-27T00:18:59.177Z,97710.31
2023-04-27T00:21:25.639Z,97709.22
2023-04-27T00:23:52.168Z,97709.59
2023-04-27T00:26:18.655Z,97709.13
2023-04-27T00:28:48.515Z,97707.09
2023-04-27T00:31:15.118Z,97700.22
2023-04-27T00:33:41.806Z,97707.13
2023-04-27T00:36:08.568Z,97697.84
2023-04-27T00:38:35.011Z,97703.53
2023-04-27T00:41:02.440Z,97702.06
2023-04-27T00:43:28.915Z,97703.59
2023-04-27T00:45:55.857Z,97699.22
2023-04-27T00:48:22.522Z,97702.69
2023-04-27T00:50:50.956Z,97707.09
2023-04-27T00:53:18.014Z,97712.97
2023-04-27T00:55:44.549Z,97710.50
2023-04-27T00:58:11.840Z,97709.31
2023-04-27T01:00:40.032Z,97709.31
2023-04-27T01:03:07.478Z,97707.72
2023-04-27T01:05:34.818Z,97714.78
2023-04-27T01:08:01.460Z,97716.81
2023-04-27T01:10:28.477Z,97709.72
2023-04-27T01:12:55.615Z,97716.50
2023-04-27T01:15:22.125Z,97716.88
2023-04-27T01:17:48.662Z,97711.25
2023-04-27T01:20:15.428Z,97711.72
2023-04-27T01:22:43.130Z,97716.28
2023-04-27T01:25:09.750Z,97713.00
2023-04-27T01:27:36.254Z,97712.88
2023-04-27T01:30:03.568Z,97717.41
2023-04-27T01:32:30.590Z,97712.38
2023-04-27T01:34:57.098Z,97713.22
2023-04-27T01:37:26.338Z,97716.19
2023-04-27T01:39:52.836Z,97717.59
2023-04-27T01:42:19.368Z,97729.63
2023-04-27T01:44:46.063Z,97725.88
2023-04-27T01:47:12.505Z,97734.19
2023-04-27T01:49:40.175Z,97737.25
2023-04-27T01:52:06.788Z,97731.78
2023-04-27T01:54:33.538Z,97733.72
2023-04-27T01:57:00.026Z,97732.41
2023-04-27T01:59:26.596Z,97736.06
2023-04-27T02:01:53.223Z,97730.94
2023-04-27T02:04:19.810Z,97738.97
2023-04-27T02:06:46.535Z,97740.56
2023-04-27T02:09:13.680Z,97732.94
2023-04-27T02:11:40.730Z,97738.22
2023-04-27T02:14:07.216Z,97740.66
2023-04-27T02:16:33.770Z,97737.19
2023-04-27T02:19:01.624Z,97734.41
2023-04-27T02:21:29.509Z,97745.50
2023-04-27T02:23:56.344Z,97734.28
2023-04-27T02:26:29.186Z,97740.28
2023-04-27T02:28:57.137Z,97740.81
2023-04-27T02:31:24.180Z,97737.41
2023-04-27T02:33:50.992Z,97737.50
2023-04-27T02:36:17.422Z,97730.63
2023-04-27T02:38:43.987Z,97737.72
2023-04-27T02:41:10.504Z,97741.19
2023-04-27T02:43:36.937Z,97741.47
2023-04-27T02:46:05.741Z,97738.97
2023-04-27T02:48:32.334Z,97745.44
2023-04-27T02:50:58.825Z,97737.16
2023-04-27T02:53:25.655Z,97740.38
2023-04-27T02:55:52.155Z,97743.91
2023-04-27T02:58:18.652Z,97740.16
2023-04-27T03:00:45.582Z,97748.13
2023-04-27T03:03:12.608Z,97744.25
2023-04-27T03:05:39.284Z,97742.84
2023-04-27T03:08:05.801Z,97745.44
2023-04-27T03:10:32.286Z,97740.53
2023-04-27T03:12:58.755Z,97743.94
2023-04-27T03:15:25.210Z,97750.59
2023-04-27T03:17:52.220Z,97754.50
2023-04-27T03:20:18.867Z,97758.91
2023-04-27T03:22:45.900Z,97757.41
2023-04-27T03:25:12.549Z,97754.00
2023-04-27T03:27:39.024Z,97764.59
2023-04-27T03:30:05.892Z,97757.25
2023-04-27T03:32:32.863Z,97754.38
2023-04-27T03:35:01.014Z,97762.91
2023-04-27T03:37:27.472Z,97760.91
2023-04-27T03:39:56.570Z,97764.66
2023-04-27T03:42:23.248Z,97756.09
2023-04-27T03:44:49.961Z,97758.59
2023-04-27T03:47:16.586Z,97771.63
2023-04-27T03:49:43.047Z,97774.59
2023-04-27T03:52:09.519Z,97770.66
2023-04-27T03:54:36.569Z,97764.56
2023-04-27T03:57:04.409Z,97761.88
2023-04-27T03:59:31.096Z,97766.25
2023-04-27T04:02:01.493Z,97762.09
2023-04-27T04:04:28.245Z,97764.94
2023-04-27T04:06:54.858Z,97771.63
2023-04-27T04:09:23.967Z,97770.81
2023-04-27T04:11:51.850Z,97777.78
2023-04-27T04:14:19.171Z,97771.63
2023-04-27T04:16:46.309Z,97771.50
2023-04-27T04:19:13.194Z,97772.75
2023-04-27T04:21:39.961Z,97776.91
2023-04-27T04:24:07.418Z,97774.66
2023-04-27T04:26:33.935Z,97774.81
2023-04-27T04:29:01.190Z,97778.59
2023-04-27T04:31:27.858Z,97775.78
2023-04-27T04:33:54.395Z,97772.66
2023-04-27T04:36:21.505Z,97776.16
2023-04-27T04:38:49.684Z,97782.75
2023-04-27T04:41:17.013Z,97784.13
2023-04-27T04:43:43.502Z,97781.38
2023-04-27T04:46:09.998Z,97788.91
2023-04-27T04:48:36.850Z,97781.31
2023-04-27T04:51:04.935Z,97788.38
2023-04-27T04:53:32.354Z,97787.69
2023-04-27T04:56:08.010Z,97790.94
2023-04-27T04:58:34.514Z,97795.97
2023-04-27T05:01:01.807Z,97787.31
2023-04-27T05:03:28.435Z,97793.81
2023-04-27T05:05:55.122Z,97791.34
2023-04-27T05:08:21.556Z,97792.47
2023-04-27T05:10:51.795Z,97802.78
2023-04-27T05:13:18.259Z,97793.03
2023-04-27T05:15:44.811Z,97802.16
2023-04-27T05:18:11.265Z,97802.91
2023-04-27T05:20:38.475Z,97812.72
2023-04-27T05:23:05.133Z,97812.88
2023-04-27T05:25:32.149Z,97810.50
2023-04-27T05:27:58.711Z,97812.00
2023-04-27T05:30:25.264Z,97807.13
2023-04-27T05:32:51.711Z,97805.97
2023-04-27T05:35:18.334Z,97811.06
2023-04-27T05:37:44.841Z,97811.38
2023-04-27T05:40:11.426Z,97819.56
2023-04-27T05:42:37.920Z,97817.00
2023-04-27T05:45:04.582Z,97821.25
2023-04-27T05:47:31.072Z,97815.31
2023-04-27T05:49:57.562Z,97813.88
2023-04-27T05:52:29.517Z,97817.59
2023-04-27T05:54:56.730Z,97816.16
2023-04-27T05:57:23.161Z,97818.97
2023-04-27T05:59:49.680Z,97818.53
2023-04-27T06:02:16.651Z,97829.69
2023-04-27T06:04:43.268Z,97820.22
2023-04-27T06:07:13.788Z,97828.41
2023-04-27T06:09:40.696Z,97822.09
2023-04-27T06:12:07.968Z,97824.53
2023-04-27T06:14:35.813Z,97830.09
2023-04-27T06:17:02.685Z,97829.06
2023-04-27T06:19:29.187Z,97828.66
2023-04-27T06:21:56.110Z,97839.47
2023-04-27T06:24:22.599Z,97845.25
2023-04-27T06:26:49.578Z,97837.56
2023-04-27T06:29:16.080Z,97842.78
2023-04-27T06:31:42.642Z,97837.16
2023-04-27T06:34:09.296Z,97840.72
2023-04-27T06:36:36.242Z,97838.22
2023-04-27T06:39:02.699Z,97837.41
2023-04-27T06:41:29.146Z,97843.84
2023-04-27T06:43:58.457Z,97845.41
2023-04-27T06:46:25.453Z,97838.00
2023-04-27T06:48:52.665Z,97841.00
2023-04-27T06:51:19.299Z,97838.94
2023-04-27T06:53:46.150Z,97842.06
2023-04-27T06:56:12.625Z,97848.97
2023-04-27T06:58:39.108Z,97843.09
2023-04-27T07:01:05.634Z,97849.34
2023-04-27T07:03:34.578Z,97851.28
2023-04-27T07:06:01.356Z,97842.84
2023-04-27T07:08:27.877Z,97852.34
2023-04-27T07:10:54.473Z,97846.16
2023-04-27T07:13:20.952Z,97845.88
2023-04-27T07:15:47.481Z,97843.78
2023-04-27T07:18:13.969Z,97840.31
2023-04-27T07:20:41.162Z,97841.97
2023-04-27T07:23:08.113Z,97837.97
2023-04-27T07:25:35.304Z,97842.91
2023-04-27T07:28:01.768Z,97841.31
2023-04-27T07:30:30.676Z,97838.00
2023-04-27T07:32:57.393Z,97838.16
2023-04-27T07:35:23.894Z,97822.56
2023-04-27T07:37:52.048Z,97824.47
2023-04-27T07:40:18.734Z,97817.78
2023-04-27T07:42:48.149Z,97818.97
2023-04-27T07:45:15.386Z,97829.97
2023-04-27T07:47:42.427Z,97827.78
2023-04-27T07:50:09.308Z,97826.56
2023-04-27T07:52:37.581Z,97831.19
2023-04-27T07:55:04.692Z,97832.59
2023-04-27T07:57:31.554Z,97830.91
2023-04-27T07:59:58.145Z,97825.03
2023-04-27T08:02:26.840Z,97828.72
2023-04-27T08:04:53.939Z,97831.16
2023-04-27T08:07:20.881Z,97832.06
2023-04-27T08:09:47.428Z,97833.69
2023-04-27T08:12:13.938Z,97830.53
2023-04-27T08:14:40.407Z,97829.06
2023-04-27T08:17:07.040Z,97826.03
2023-04-27T08:19:33.572Z,97827.47
2023-04-27T08:22:00.782Z,97828.00
2023-04-27T08:24:27.258Z,97828.75
2023-04-27T08:26:53.753Z,97823.88
2023-04-27T08:29:27.713Z,97814.16
2023-04-27T08:31:56.861Z,97823.72
2023-04-27T08:34:23.870Z,97820.72
2023-04-27T08:36:50.386Z,97821.66
2023-04-27T08:39:18.165Z,97819.97
2023-04-27T08:41:45.255Z,97825.97
2023-04-27T08:44:11.959Z,97825.44
2023-04-27T08:46:38.735Z,97819.78
2023-04-27T08:49:06.150Z,97826.75
2023-04-27T08:51:33.269Z,97809.63
2023-04-27T08:53:59.738Z,97805.00
2023-04-27T08:56:27.934Z,97806.75
2023-04-27T08:58:55.671Z,97803.94
2023-04-27T09:01:22.700Z,97803.41
2023-04-27T09:03:50.013Z,97796.16
2023-04-27T09:06:17.062Z,97787.13
2023-04-27T09:08:47.900Z,97794.69
2023-04-27T09:11:14.829Z,97795.56
2023-04-27T09:13:45.062Z,97798.50
2023-04-27T09:16:15.093Z,97795.69
2023-04-27T09:18:42.592Z,97790.28
2023-04-27T09:21:09.587Z,97794.03
2023-04-27T09:23:36.958Z,97799.00
2023-04-27T09:26:07.938Z,97790.66
2023-04-27T09:28:35.978Z,97792.75
2023-04-27T09:31:03.105Z,97788.75
2023-04-27T09:33:31.021Z,97794.66
2023-04-27T09:35:58.451Z,97782.31
2023-04-27T09:38:25.449Z,97778.34
2023-04-27T09:40:52.704Z,97776.44
2023-04-27T09:43:19.228Z,97770.91
2023-04-27T09:45:46.267Z,97785.78
2023-04-27T09:48:13.591Z,97767.63
2023-04-27T09:50:41.073Z,97774.41
2023-04-27T09:53:15.672Z,97765.75
2023-04-27T09:55:47.198Z,97763.38
2023-04-27T09:58:13.639Z,97762.28
2023-04-27T10:01:00.866Z,97768.53
2023-04-27T10:03:35.542Z,97761.53
2023-04-27T10:06:20.904Z,97760.34
2023-04-27T10:08:47.418Z,97760.53
2023-04-27T10:11:15.442Z,97750.44
2023-04-27T10:13:52.419Z,97758.41
2023-04-27T10:16:21.546Z,97754.69
2023-04-27T10:18:55.015Z,97752.75
2023-04-27T10:21:21.791Z,97744.09
2023-04-27T10:23:50.598Z,97743.06
2023-04-27T10:26:23.993Z,97741.66
2023-04-27T10:28:57.669Z,97739.72
2023-04-27T10:31:28.335Z,97740.47
2023-04-27T10:34:05.055Z,97735.16
2023-04-27T10:36:36.971Z,97736.16
2023-04-27T10:39:06.625Z,97729.91
2023-04-27T10:41:36.356Z,97734.88
2023-04-27T10:44:19.405Z,97726.31
2023-04-27T10:46:52.739Z,97734.91
2023-04-27T10:49:19.670Z,97736.81
2023-04-27T10:51:47.086Z,97724.91
2023-04-27T10:54:13.881Z,97718.53
2023-04-27T10:56:41.048Z,97733.84
2023-04-27T10:59:10.284Z,97714.28
2023-04-27T11:01:37.273Z,97715.44
2023-04-27T11:04:04.311Z,97707.84
2023-04-27T11:06:33.497Z,97710.28
2023-04-27T11:09:00.478Z,97705.91
2023-04-27T11:11:27.086Z,97713.28
2023-04-27T11:13:53.529Z,97708.16
2023-04-27T11:16:20.128Z,97709.88
2023-04-27T11:18:46.725Z,97713.06
2023-04-27T11:21:14.202Z,97710.53
2023-04-27T11:23:41.368Z,97719.66
2023-04-27T11:26:15.141Z,97703.16
2023-04-27T11:28:42.590Z,97708.47
2023-04-27T11:31:09.492Z,97700.19
2023-04-27T11:33:36.307Z,97705.38
2023-04-27T11:36:03.435Z,97704.25
2023-04-27T11:38:33.518Z,97706.25
2023-04-27T11:41:01.072Z,97693.16
2023-04-27T11:43:27.740Z,97703.97
2023-04-27T11:45:55.369Z,97709.69
2023-04-27T11:48:25.476Z,97708.25
2023-04-27T11:50:53.407Z,97702.09
2023-04-27T11:53:32.972Z,97705.69
2023-04-27T11:56:01.161Z,97707.09
2023-04-27T11:58:28.128Z,97700.13
2023-04-27T12:00:56.324Z,97707.94
2023-04-27T12:03:22.960Z,97708.78
2023-04-27T12:05:50.831Z,97708.78
2023-04-27T12:08:17.613Z,97708.22
2023-04-27T12:10:44.542Z,97713.03
2023-04-27T12:13:11.807Z,97710.94
2023-04-27T12:15:42.421Z,97706.13
2023-04-27T12:18:09.414Z,97706.63
2023-04-27T12:20:36.108Z,97699.75
2023-04-27T12:23:02.636Z,97694.31
2023-04-27T12:25:29.085Z,97694.22
2023-04-27T12:27:55.982Z,97688.16
2023-04-27T12:30:23.122Z,97695.25
2023-04-27T12:32:49.620Z,97689.84
2023-04-27T12:35:16.213Z,97691.72
2023-04-27T12:37:42.851Z,97684.22
2023-04-27T12:40:09.884Z,97682.31
2023-04-27T12:42:36.432Z,97681.69
2023-04-27T12:45:04.578Z,97686.31
2023-04-27T12:47:53.855Z,97684.47
2023-04-27T12:50:18.578Z,97678.31
2023-04-27T12:52:45.156Z,97677.25
2023-04-27T12:55:24.863Z,97678.56
2023-04-27T12:57:58.447Z,97678.16
2023-04-27T13:00:25.547Z,97681.72
2023-04-27T13:02:52.773Z,97675.63
2023-04-27T13:05:19.756Z,97677.34
2023-04-27T13:07:46.207Z,97681.81
2023-04-27T13:10:12.770Z,97679.31
2023-04-27T13:12:39.321Z,97673.78
2023-04-27T13:15:07.955Z,97667.78
2023-04-27T13:17:34.610Z,97675.94
2023-04-27T13:20:01.128Z,97682.06
2023-04-27T13:22:28.000Z,97690.47
2023-04-27T13:24:54.607Z,97685.75
2023-04-27T13:27:22.448Z,97683.00
2023-04-27T13:29:51.172Z,97677.72
2023-04-27T13:32:17.832Z,97684.75
2023-04-27T13:34:44.371Z,97665.56
2023-04-27T13:37:10.941Z,97671.63
2023-04-27T13:39:37.696Z,97665.09
2023-04-27T13:42:04.360Z,97669.28
2023-04-27T13:44:31.868Z,97666.78
2023-04-27T13:46:58.639Z,97667.53
2023-04-27T13:49:25.937Z,97668.03
2023-04-27T13:51:52.697Z,97660.50
2023-04-27T13:54:19.951Z,97657.91
2023-04-27T13:56:46.515Z,97660.38
2023-04-27T13:59:13.220Z,97664.69
2023-04-27T14:01:40.161Z,97657.94
2023-04-27T14:04:06.797Z,97660.16
2023-04-27T14:06:33.386Z,97654.41
2023-04-27T14:08:59.820Z,97653.47
2023-04-27T14:11:26.320Z,97658.66
2023-04-27T14:13:52.868Z,97662.09
2023-04-27T14:16:19.382Z,97655.50
2023-04-27T14:18:45.921Z,97652.78
2023-04-27T14:21:12.403Z,97658.94
2023-04-27T14:23:38.899Z,97658.56
2023-04-27T14:26:05.823Z,97654.00
2023-04-27T14:28:32.336Z,97662.31
2023-04-27T14:30:58.766Z,97657.84
2023-04-27T14:33:25.482Z,97657.75
2023-04-27T14:35:51.969Z,97662.84
2023-04-27T14:38:18.457Z,97652.88
2023-04-27T14:40:44.963Z,97655.22
2023-04-27T14:43:11.757Z,97651.72
2023-04-27T14:45:51.178Z,97648.50
2023-04-27T14:48:20.941Z,97656.97
2023-04-27T14:50:47.409Z,97659.09
2023-04-27T14:53:13.987Z,97661.13
2023-04-27T14:55:43.513Z,97658.72
2023-04-27T14:58:10.074Z,97658.84
2023-04-27T15:00:36.519Z,97656.94
2023-04-27T15:03:03.105Z,97657.38
2023-04-27T15:05:29.717Z,97663.34
2023-04-27T15:07:56.240Z,97660.22
2023-04-27T15:10:22.773Z,97668.66
2023-04-27T15:12:49.263Z,97669.63
2023-04-27T15:15:16.220Z,97664.09
2023-04-27T15:17:42.681Z,97667.56
2023-04-27T15:20:10.953Z,97669.16
2023-04-27T15:22:37.408Z,97672.78
2023-04-27T15:25:04.139Z,97675.28
2023-04-27T15:27:30.603Z,97667.94
2023-04-27T15:29:58.100Z,97659.75
2023-04-27T15:32:29.795Z,97668.56
2023-04-27T15:34:59.265Z,97665.81
2023-04-27T15:37:26.508Z,97666.25
2023-04-27T15:39:52.961Z,97669.75
2023-04-27T15:42:19.457Z,97667.53
2023-04-27T15:44:46.057Z,97664.56
2023-04-27T15:47:13.420Z,97668.13
2023-04-27T15:49:53.563Z,97668.03
2023-04-27T15:52:23.804Z,97668.56
2023-04-27T15:54:50.286Z,97668.78
2023-04-27T15:57:18.201Z,97667.28
2023-04-27T15:59:44.705Z,97660.78
2023-04-27T16:02:11.482Z,97655.22
2023-04-27T16:04:38.045Z,97656.38
2023-04-27T16:07:06.870Z,97660.38
2023-04-27T16:09:33.446Z,97654.06
2023-04-27T16:11:59.892Z,97664.81
2023-04-27T16:14:26.654Z,97659.38
2023-04-27T16:16:54.879Z,97661.41
2023-04-27T16:19:22.664Z,97654.69
2023-04-27T16:21:49.630Z,97656.50
2023-04-27T16:24:16.066Z,97653.78
2023-04-27T16:26:42.528Z,97642.63
2023-04-27T16:29:09.019Z,97647.25
2023-04-27T16:31:35.605Z,97655.69
2023-04-27T16:34:02.152Z,97658.63
2023-04-27T16:36:28.760Z,97660.75
2023-04-27T16:38:55.648Z,97659.09
2023-04-27T16:41:22.552Z,97655.81
2023-04-27T16:43:50.671Z,97663.13
2023-04-27T16:46:17.476Z,97652.75
2023-04-27T16:48:44.240Z,97655.63
2023-04-27T16:51:10.735Z,97654.94
2023-04-27T16:53:37.280Z,97661.91
2023-04-27T16:56:03.901Z,97668.88
2023-04-27T16:58:30.777Z,97660.44
2023-04-27T17:00:58.085Z,97666.78
2023-04-27T17:03:24.744Z,97662.47
2023-04-27T17:05:51.900Z,97663.59
2023-04-27T17:08:18.483Z,97670.72
2023-04-27T17:10:45.522Z,97674.47
2023-04-27T17:13:14.610Z,97666.22
2023-04-27T17:15:41.090Z,97680.63
2023-04-27T17:18:09.533Z,97682.16
2023-04-27T17:20:36.110Z,97683.16
2023-04-27T17:23:02.598Z,97679.16
2023-04-27T17:25:29.088Z,97687.53
2023-04-27T17:27:55.651Z,97682.44
2023-04-27T17:30:22.103Z,97686.63
2023-04-27T17:32:48.664Z,97687.19
2023-04-27T17:35:15.334Z,97687.38
2023-04-27T17:37:41.819Z,97692.88
2023-04-27T17:40:09.117Z,97690.50
2023-04-27T17:42:35.753Z,97699.34
2023-04-27T17:45:02.519Z,97700.78
2023-04-27T17:47:29.030Z,97697.88
2023-04-27T17:49:55.673Z,97702.19
2023-04-27T17:52:22.102Z,97710.25
2023-04-27T17:54:48.559Z,97705.47
2023-04-27T17:57:15.080Z,97699.03
2023-04-27T17:59:41.687Z,97704.75
2023-04-27T18:02:08.253Z,97705.44
2023-04-27T18:04:35.009Z,97714.44
2023-04-27T18:07:01.491Z,97708.75
2023-04-27T18:09:28.774Z,97709.31
2023-04-27T18:11:56.534Z,97721.34
2023-04-27T18:14:22.995Z,97726.56
2023-04-27T18:16:49.531Z,97722.19
2023-04-27T18:19:16.397Z,97723.06
2023-04-27T18:21:43.125Z,97721.22
2023-04-27T18:24:09.821Z,97723.28
2023-04-27T18:26:38.916Z,97736.16
2023-04-27T18:29:05.395Z,97751.38
2023-04-27T18:31:31.969Z,97747.50
2023-04-27T18:33:59.268Z,97750.00
2023-04-27T18:36:27.526Z,97752.38
2023-04-27T18:38:54.197Z,97757.13
2023-04-27T18:41:21.206Z,97760.50
2023-04-27T18:43:47.652Z,97764.06
2023-04-27T18:46:14.130Z,97770.00
2023-04-27T18:48:41.226Z,97782.00
2023-04-27T18:51:07.864Z,97788.25
2023-04-27T18:53:34.329Z,97794.00
2023-04-27T18:56:00.825Z,97792.63
2023-04-27T18:58:27.275Z,97784.16
2023-04-27T19:00:53.853Z,97793.25
2023-04-27T19:03:20.482Z,97796.72
2023-04-27T19:05:47.134Z,97791.28
2023-04-27T19:08:13.673Z,97795.03
2023-04-27T19:10:41.556Z,97804.19
2023-04-27T19:13:08.227Z,97803.50
2023-04-27T19:15:34.924Z,97811.28
2023-04-27T19:18:07.036Z,97821.19
2023-04-27T19:20:36.948Z,97828.81
2023-04-27T19:23:03.542Z,97822.75
2023-04-27T19:25:30.113Z,97831.03
2023-04-27T19:27:56.572Z,97827.81
2023-04-27T19:30:23.026Z,97825.06
2023-04-27T19:32:49.583Z,97821.38
2023-04-27T19:35:16.393Z,97824.38
2023-04-27T19:37:42.850Z,97827.81
2023-04-27T19:40:09.648Z,97832.50
2023-04-27T19:42:36.133Z,97836.56
2023-04-27T19:45:03.976Z,97833.59
2023-04-27T19:47:30.899Z,97841.22
2023-04-27T19:49:58.986Z,97842.34
2023-04-27T19:52:25.896Z,97827.44
2023-04-27T19:54:53.212Z,97828.25
2023-04-27T19:57:20.448Z,97835.00
2023-04-27T19:59:46.933Z,97843.44
2023-04-27T20:02:13.509Z,97844.41
2023-04-27T20:04:41.569Z,97853.72
2023-04-27T20:07:08.260Z,97861.34
2023-04-27T20:09:34.749Z,97854.78
2023-04-27T20:12:01.318Z,97854.03
2023-04-27T20:14:30.024Z,97859.03
2023-04-27T20:16:56.720Z,97866.91
2023-04-27T20:19:25.146Z,97862.53
2023-04-27T20:21:51.609Z,97860.06
2023-04-27T20:24:18.200Z,97867.06
2023-04-27T20:26:44.784Z,97866.22
2023-04-27T20:29:11.655Z,97863.63
2023-04-27T20:31:38.204Z,97864.63
2023-04-27T20:34:04.733Z,97859.97
2023-04-27T20:36:32.076Z,97871.75
2023-04-27T20:39:00.802Z,97866.22
2023-04-27T20:41:27.555Z,97869.53
2023-04-27T20:43:54.060Z,97869.03
2023-04-27T20:46:21.050Z,97872.25
2023-04-27T20:48:47.610Z,97871.75
2023-04-27T20:51:14.102Z,97872.81
2023-04-27T20:53:40.653Z,97878.22
2023-04-27T20:56:07.357Z,97872.19
2023-04-27T20:58:33.785Z,97865.78
2023-04-27T21:01:00.470Z,97873.94
2023-04-27T21:03:27.037Z,97882.03
2023-04-27T21:05:53.705Z,97882.81
2023-04-27T21:08:20.209Z,97884.19
2023-04-27T21:10:46.793Z,97877.88
2023-04-27T21:13:13.232Z,97869.41
2023-04-27T21:15:39.702Z,97871.84
2023-04-27T21:18:07.833Z,97874.59
2023-04-27T21:20:36.132Z,97882.22
2023-04-27T21:23:02.797Z,97884.78
2023-04-27T21:25:29.360Z,97883.50
2023-04-27T21:27:56.001Z,97882.16
2023-04-27T21:30:22.644Z,97882.31
2023-04-27T21:32:49.176Z,97878.59
2023-04-27T21:35:15.645Z,97894.66
2023-04-27T21:37:42.180Z,97895.72
2023-04-27T21:40:08.849Z,97892.34
2023-04-27T21:42:35.381Z,97896.03
2023-04-27T21:45:03.753Z,97890.69
2023-04-27T21:47:30.273Z,97892.69
2023-04-27T21:49:56.848Z,97896.38
2023-04-27T21:52:24.400Z,97893.66
2023-04-27T21:54:50.945Z,97896.44
2023-04-27T21:57:19.425Z,97893.03
2023-04-27T21:59:46.625Z,97896.53
2023-04-27T22:02:13.142Z,97901.84
2023-04-27T22:04:39.723Z,97904.53
2023-04-27T22:07:07.940Z,97901.19
2023-04-27T22:09:35.462Z,97889.19
2023-04-27T22:12:06.860Z,97879.38
2023-04-27T22:14:33.979Z,97885.22
2023-04-27T22:17:02.023Z,97884.44
2023-04-27T22:19:28.771Z,97888.91
2023-04-27T22:21:55.476Z,97895.25
2023-04-27T22:24:22.056Z,97895.56
2023-04-27T22:26:48.582Z,97903.25
2023-04-27T22:29:15.442Z,97899.91
2023-04-27T22:31:42.160Z,97899.56
2023-04-27T22:34:08.981Z,97900.75
2023-04-27T22:36:35.476Z,97910.25
2023-04-27T22:39:02.408Z,97901.97
2023-04-27T22:41:28.853Z,97890.72
2023-04-27T22:43:55.524Z,97897.56
2023-04-27T22:46:23.391Z,97905.31
2023-04-27T22:48:50.866Z,97898.94
2023-04-27T22:51:17.348Z,97903.72
2023-04-27T22:53:43.855Z,97901.00
2023-04-27T22:56:10.443Z,97890.75
2023-04-27T22:58:37.073Z,97894.28
2023-04-27T23:01:03.863Z,97897.97
2023-04-27T23:03:30.469Z,97898.09
2023-04-27T23:05:57.091Z,97895.97
2023-04-27T23:08:24.835Z,97895.38
2023-04-27T23:10:54.459Z,97894.06
2023-04-27T23:13:27.433Z,97892.88
2023-04-27T23:15:57.105Z,97896.47
2023-04-27T23:18:23.629Z,97888.16
2023-04-27T23:20:56.662Z,97884.47
2023-04-27T23:23:23.130Z,97878.56
2023-04-27T23:25:49.732Z,97877.34
2023-04-27T23:28:16.719Z,97877.72
2023-04-27T23:30:43.257Z,97878.28
2023-04-27T23:33:09.766Z,97876.56
2023-04-27T23:35:36.344Z,97869.09
2023-04-27T23:38:02.821Z,97866.34
2023-04-27T23:40:29.373Z,97869.94
2023-04-27T23:42:55.964Z,97869.00
2023-04-27T23:45:22.459Z,97873.28
2023-04-27T23:47:49.323Z,97870.34
2023-04-27T23:50:15.975Z,97876.69
2023-04-27T23:52:42.686Z,97879.97
2023-04-27T23:55:09.436Z,97886.91
2023-04-27T23:57:35.893Z,97880.69
